Time;durP1;ratioP1;P1;durP2;ratioP2;P2;SDS_P1;SDS_P2;PMS_P1;PMS_P2;Temp;Humidity;BMP_temperature;BMP_pressure;BME280_temperature;BME280_humidity;BME280_pressure;Samples;Min_cycle;Max_cycle;Signal;HPM_P1;HPM_P2
2023/01/01 00:02:09;;;;;;;0.10;0.10;;;;;;;8.90;80.33;98953.97;7356100;19;20051;-58
2023/01/01 00:04:34;;;;;;;0.10;0.10;;;;;;;8.89;80.30;98957.47;7356054;19;20011;-58
2023/01/01 00:07:00;;;;;;;0.10;0.10;;;;;;;8.80;80.71;98948.31;7356447;19;19999;-58
2023/01/01 00:12:10;;;;;;;0.00;0.00;;;;;;;8.89;80.30;98961.84;7355373;19;20024;-59
2023/01/01 00:14:35;;;;;;;0.10;0.10;;;;;;;8.90;80.30;98958.31;7357541;19;20033;-58
2023/01/01 00:17:01;;;;;;;0.00;0.00;;;;;;;8.88;80.69;98955.78;7353854;19;20002;-59
2023/01/01 00:19:26;;;;;;;0.00;0.00;;;;;;;8.89;80.31;98962.69;7351535;19;22915;-58
2023/01/01 00:21:52;;;;;;;0.03;0.03;;;;;;;8.89;80.68;98957.47;7357503;19;20818;-59
2023/01/01 00:24:18;;;;;;;0.00;0.00;;;;;;;8.80;80.49;98943.09;7355861;19;21132;-59
2023/01/01 00:26:43;;;;;;;0.00;0.00;;;;;;;8.91;80.49;98965.22;7355046;19;20014;-59
2023/01/01 00:29:09;;;;;;;0.00;0.00;;;;;;;8.92;80.39;98961.69;7353623;19;20002;-59
2023/01/01 00:31:34;;;;;;;0.00;0.00;;;;;;;8.91;80.56;98960.84;7358895;19;20006;-58
2023/01/01 00:34:00;;;;;;;0.00;0.00;;;;;;;8.92;80.36;98972.97;7359854;19;20011;-59
2023/01/01 00:36:27;;;;;;;0.10;0.10;;;;;;;8.91;80.53;98955.63;7355293;19;20025;-59
2023/01/01 00:38:53;;;;;;;0.00;0.00;;;;;;;8.90;80.48;98969.56;7358931;19;20992;-56
2023/01/01 00:41:18;;;;;;;0.03;0.03;;;;;;;8.89;80.35;98962.69;7361770;19;20126;-59
2023/01/01 00:43:44;;;;;;;0.00;0.00;;;;;;;8.89;80.25;98967.88;7359949;19;20018;-58
2023/01/01 00:46:10;;;;;;;0.10;0.10;;;;;;;8.90;80.25;98968.72;7357319;19;20030;-59
2023/01/01 00:48:36;;;;;;;0.10;0.10;;;;;;;8.90;80.07;98969.56;7358988;19;20786;-59
2023/01/01 00:51:03;;;;;;;0.00;0.00;;;;;;;8.88;80.22;98963.59;7357975;19;20021;-58
2023/01/01 00:53:28;;;;;;;0.10;0.10;;;;;;;8.76;79.74;98956.31;7357951;19;20015;-58
2023/01/01 00:55:55;;;;;;;0.00;0.00;;;;;;;8.84;79.64;98964.66;7360802;19;20043;-59
2023/01/01 00:58:22;;;;;;;0.00;0.00;;;;;;;8.82;80.05;98956.06;7357324;19;20517;-58
2023/01/01 01:00:48;;;;;;;0.10;0.10;;;;;;;8.79;79.61;98948.38;7364236;19;20003;-59
2023/01/01 01:03:26;;;;;;;0.05;0.05;;;;;;;8.77;79.77;98958.88;7358467;19;20599;-58
2023/01/01 01:05:54;;;;;;;0.03;0.03;;;;;;;8.77;79.56;98945.00;7357850;19;20026;-58
2023/01/01 01:08:20;;;;;;;0.00;0.00;;;;;;;8.73;79.64;98940.84;7359630;19;20026;-59
2023/01/01 01:10:45;;;;;;;0.00;0.00;;;;;;;8.70;79.43;98951.38;7356787;19;20030;-59
2023/01/01 01:13:11;;;;;;;0.00;0.00;;;;;;;8.67;79.70;98960.16;7359244;19;20356;-59
2023/01/01 01:15:37;;;;;;;0.00;0.00;;;;;;;8.62;79.12;98956.03;7360139;19;20102;-58
2023/01/01 01:18:03;;;;;;;0.10;0.10;;;;;;;8.47;79.15;98942.81;7353673;19;20006;-57
2023/01/01 01:20:28;;;;;;;0.08;0.08;;;;;;;8.54;79.46;98956.38;7358090;19;20366;-58
2023/01/01 01:22:53;;;;;;;0.00;0.00;;;;;;;8.47;78.81;98955.81;7356080;19;20027;-59
2023/01/01 01:25:19;;;;;;;0.00;0.00;;;;;;;8.43;78.85;98962.03;7357304;19;20011;-59
2023/01/01 01:27:44;;;;;;;0.00;0.00;;;;;;;8.38;78.55;98966.59;7354893;19;20577;-58
2023/01/01 01:30:10;;;;;;;0.00;0.00;;;;;;;8.33;78.56;98979.75;7357514;19;20002;-57
2023/01/01 01:32:35;;;;;;;0.00;0.00;;;;;;;8.27;78.37;98984.38;7357292;19;20006;-59
2023/01/01 01:35:01;;;;;;;0.00;0.00;;;;;;;8.22;78.76;98991.50;7357427;19;20010;-57
2023/01/01 01:37:27;;;;;;;0.03;0.03;;;;;;;8.18;78.72;98995.13;7353721;19;20078;-59
2023/01/01 01:39:52;;;;;;;0.00;0.00;;;;;;;8.11;78.64;98999.75;7358334;19;20098;-59
2023/01/01 01:42:18;;;;;;;0.00;0.00;;;;;;;8.06;78.63;99001.69;7352342;19;20019;-59
2023/01/01 01:44:48;;;;;;;0.00;0.00;;;;;;;8.01;79.09;99007.06;7358027;19;20010;-59
2023/01/01 01:47:21;;;;;;;0.00;0.00;;;;;;;7.99;78.88;99021.00;7351780;19;20010;-58
2023/01/01 01:49:49;;;;;;;0.03;0.03;;;;;;;7.92;79.05;99020.41;7362031;19;20035;-59
2023/01/01 01:52:15;;;;;;;0.10;0.10;;;;;;;7.89;78.75;99014.47;7356452;19;20018;-59
2023/01/01 01:54:41;;;;;;;0.10;0.10;;;;;;;7.83;78.85;99025.94;7360791;19;20038;-59
2023/01/01 01:57:09;;;;;;;0.00;0.00;;;;;;;7.81;78.31;99027.78;7357565;19;20015;-58
2023/01/01 01:59:40;;;;;;;0.05;0.05;;;;;;;7.76;78.84;99038.34;7358630;19;20798;-59
2023/01/01 02:02:14;;;;;;;0.08;0.08;;;;;;;7.74;78.64;99041.88;7358199;19;20010;-59
2023/01/01 02:04:41;;;;;;;0.08;0.08;;;;;;;7.66;78.58;99049.13;7357107;19;20010;-58
2023/01/01 02:07:07;;;;;;;0.00;0.00;;;;;;;7.61;79.05;99051.06;7357319;19;20043;-59
2023/01/01 02:09:32;;;;;;;0.00;0.00;;;;;;;7.60;79.14;99051.94;7359955;19;20010;-59
2023/01/01 02:11:58;;;;;;;0.05;0.05;;;;;;;7.61;78.72;99062.28;7357490;19;20010;-58
2023/01/01 02:14:23;;;;;;;0.10;0.10;;;;;;;7.59;79.01;99073.63;7359934;19;20021;-58
2023/01/01 02:16:55;;;;;;;0.10;0.10;;;;;;;7.58;79.01;99074.53;7358162;19;20014;-58
2023/01/01 02:19:32;;;;;;;0.00;0.00;;;;;;;7.54;78.98;99072.03;7359717;19;20045;-58
2023/01/01 02:22:12;;;;;;;0.00;0.00;;;;;;;7.52;79.11;99084.25;7357135;19;20037;-59
2023/01/01 02:24:58;;;;;;;0.10;0.10;;;;;;;7.50;78.54;99085.19;7356910;19;20006;-59
2023/01/01 02:27:43;;;;;;;0.00;0.00;;;;;;;7.44;78.95;99086.25;7362058;19;20482;-58
2023/01/01 02:30:10;;;;;;;0.10;0.10;;;;;;;7.43;78.54;99084.56;7361478;19;20048;-59
2023/01/01 02:32:46;;;;;;;0.00;0.00;;;;;;;7.34;78.36;99074.50;7361416;19;20009;-58
2023/01/01 02:35:34;;;;;;;0.03;0.03;;;;;;;7.38;78.77;99098.63;7360609;19;20010;-59
2023/01/01 02:38:09;;;;;;;;;;;;;;;7.37;78.30;99100.38;7358055;19;20041;-59
2023/01/01 02:40:40;;;;;;;0.05;0.05;;;;;;;7.33;78.31;99103.13;7361590;19;19915;-58
2023/01/01 02:43:06;;;;;;;0.10;0.10;;;;;;;7.28;78.68;99111.09;7355827;19;20038;-58
2023/01/01 02:45:32;;;;;;;0.00;0.00;;;;;;;7.22;78.86;99100.91;7361729;19;20011;-59
2023/01/01 02:48:01;;;;;;;0.00;0.00;;;;;;;7.21;79.26;99110.47;7361959;19;20021;-57
2023/01/01 02:50:27;;;;;;;0.10;0.10;;;;;;;7.17;79.43;99108.88;7360484;19;20015;-59
2023/01/01 02:53:19;;;;;;;0.00;0.00;;;;;;;7.18;78.69;99120.94;7360761;19;20659;-58
2023/01/01 02:56:02;;;;;;;0.10;0.10;;;;;;;7.14;79.01;99124.53;7258902;19;2004470;-58
2023/01/01 03:01:35;;;;;;;0.10;0.10;;;;;;;7.10;79.43;99114.31;7259173;19;2004306;-58
2023/01/01 03:04:39;;;;;;;0.08;0.08;;;;;;;7.10;79.35;99122.13;7358485;19;20688;-58
2023/01/01 03:07:22;;;;;;;0.05;0.05;;;;;;;7.07;79.53;99127.41;7253925;19;2004192;-58
2023/01/01 03:10:06;;;;;;;0.00;0.00;;;;;;;7.09;79.71;99120.41;7358500;19;20811;-58
2023/01/01 03:12:42;;;;;;;0.03;0.03;;;;;;;7.03;80.01;99119.69;7358781;19;20014;-59
2023/01/01 03:15:22;;;;;;;0.00;0.00;;;;;;;7.08;80.28;99119.56;7358497;19;20018;-58
2023/01/01 03:18:15;;;;;;;0.10;0.10;;;;;;;7.09;80.38;99125.59;7360006;19;20020;-58
2023/01/01 03:20:45;;;;;;;0.00;0.00;;;;;;;7.08;80.18;99119.56;7255706;19;2004519;-58
2023/01/01 03:23:19;;;;;;;0.00;0.00;;;;;;;6.97;80.05;99106.94;7357627;19;20652;-58
2023/01/01 03:25:49;;;;;;;0.00;0.00;;;;;;;7.06;79.78;99125.72;7356372;19;20368;-58
2023/01/01 03:28:23;;;;;;;0.00;0.00;;;;;;;7.03;80.17;99130.09;7358541;19;20482;-59
2023/01/01 03:30:51;;;;;;;0.00;0.00;;;;;;;7.00;79.86;99130.19;7358522;19;20010;-58
2023/01/01 03:33:26;;;;;;;;;;;;;;;7.00;79.50;99132.81;7360653;19;20115;-59
2023/01/01 03:35:57;;;;;;;0.10;0.10;;;;;;;6.90;79.61;99121.03;7358597;19;19915;-59
2023/01/01 03:38:30;;;;;;;0.00;0.00;;;;;;;6.92;80.08;99129.59;7353281;19;20014;-58
2023/01/01 03:41:04;;;;;;;0.00;0.00;;;;;;;6.88;79.68;99132.34;7355686;19;20045;-58
2023/01/01 03:44:13;;;;;;;0.05;0.05;;;;;;;6.84;79.70;99131.59;7357881;19;20022;-57
2023/01/01 03:46:40;;;;;;;0.00;0.00;;;;;;;6.76;79.89;99129.25;7254325;19;2004571;-58
2023/01/01 03:49:09;;;;;;;0.00;0.00;;;;;;;6.74;79.97;99135.38;7350265;19;20558;-59
2023/01/01 03:51:55;;;;;;;0.00;0.00;;;;;;;6.72;79.83;99132.84;7356559;19;20700;-58
2023/01/01 03:54:44;;;;;;;0.00;0.00;;;;;;;6.68;79.66;99132.97;7357116;19;20010;-58
2023/01/01 03:57:19;;;;;;;0.10;0.10;;;;;;;6.62;79.76;99136.63;7354098;19;20036;-58
2023/01/01 04:00:02;;;;;;;0.00;0.00;;;;;;;6.61;79.81;99140.13;7355450;19;20190;-59
2023/01/01 04:02:37;;;;;;;0.10;0.10;;;;;;;6.57;79.78;99132.47;7358207;19;20011;-59
2023/01/01 04:05:06;;;;;;;0.10;0.10;;;;;;;6.52;80.17;99139.56;7346278;19;20011;-58
2023/01/01 04:07:32;;;;;;;0.00;0.00;;;;;;;6.47;79.80;99143.13;7365269;19;20013;-57
2023/01/01 04:10:00;;;;;;;0.10;0.10;;;;;;;6.45;80.21;99147.53;7360847;19;20007;-58
2023/01/01 04:12:28;;;;;;;0.00;0.00;;;;;;;6.41;79.99;99151.09;7365805;19;20023;-58
2023/01/01 04:14:54;;;;;;;0.00;0.00;;;;;;;6.32;80.00;99143.59;7363447;19;20017;-58
2023/01/01 04:17:19;;;;;;;0.00;0.00;;;;;;;6.34;80.17;99152.22;7364909;19;20006;-58
2023/01/01 04:19:45;;;;;;;0.00;0.00;;;;;;;6.31;79.99;99149.69;7347625;19;20018;-57
2023/01/01 04:22:10;;;;;;;0.00;0.00;;;;;;;6.26;80.08;99143.78;7361891;19;20011;-55
2023/01/01 04:24:35;;;;;;;0.10;0.10;;;;;;;6.23;80.29;99139.56;7361299;19;20011;-58
2023/01/01 04:27:01;;;;;;;0.00;0.00;;;;;;;6.20;80.26;99138.81;7361629;19;20875;-58
2023/01/01 04:29:26;;;;;;;0.00;0.00;;;;;;;6.15;80.39;99131.16;7361933;19;20010;-57
2023/01/01 04:31:51;;;;;;;0.10;0.10;;;;;;;6.14;80.00;99133.81;7362461;19;20039;-58
2023/01/01 04:34:17;;;;;;;0.10;0.10;;;;;;;6.04;80.01;99132.38;7359255;19;20618;-58
2023/01/01 04:36:42;;;;;;;0.10;0.10;;;;;;;6.07;80.25;99137.47;7361965;19;20014;-57
2023/01/01 04:39:08;;;;;;;0.00;0.00;;;;;;;6.04;80.23;99142.75;7362066;19;22528;-58
2023/01/01 04:41:33;;;;;;;0.00;0.00;;;;;;;6.01;80.33;99148.84;7359046;19;20070;-59
2023/01/01 04:43:59;;;;;;;0.10;0.10;;;;;;;5.98;79.86;99156.69;7362887;19;20017;-58
2023/01/01 04:46:24;;;;;;;0.10;0.10;;;;;;;5.94;80.36;99152.53;7362266;19;20031;-59
2023/01/01 04:48:50;;;;;;;0.10;0.10;;;;;;;5.91;80.02;99158.63;7356486;19;20003;-57
2023/01/01 04:51:17;;;;;;;0.00;0.00;;;;;;;5.90;79.95;99161.25;7358754;19;21326;-58
2023/01/01 04:53:43;;;;;;;0.10;0.10;;;;;;;5.86;79.85;99169.97;7360888;19;20034;-59
2023/01/01 04:56:15;;;;;;;0.00;0.00;;;;;;;5.84;80.22;99162.28;7361228;19;20019;-59
2023/01/01 04:58:42;;;;;;;0.00;0.00;;;;;;;5.81;80.31;99175.28;7359963;19;20014;-58
2023/01/01 05:01:13;;;;;;;0.10;0.10;;;;;;;5.75;79.95;99178.06;7358905;19;20026;-58
2023/01/01 05:03:39;;;;;;;0.03;0.03;;;;;;;5.72;80.04;99181.56;7361332;19;20017;-59
2023/01/01 05:06:07;;;;;;;0.10;0.10;;;;;;;5.73;80.39;99185.03;7362018;19;20014;-58
2023/01/01 05:08:35;;;;;;;0.10;0.10;;;;;;;5.64;80.54;99185.28;7359985;19;20422;-58
2023/01/01 05:11:02;;;;;;;0.00;0.00;;;;;;;5.62;80.38;99187.03;7359266;19;20006;-59
2023/01/01 05:13:28;;;;;;;0.00;0.00;;;;;;;5.58;80.40;99186.28;7362405;19;20018;-58
2023/01/01 05:15:54;;;;;;;0.10;0.10;;;;;;;5.54;80.21;99179.50;7360241;19;20021;-58
2023/01/01 05:18:19;;;;;;;0.10;0.10;;;;;;;5.58;80.56;99188.03;7360976;19;20030;-59
2023/01/01 05:20:45;;;;;;;0.00;0.00;;;;;;;5.65;80.50;99197.31;7360326;19;20734;-59
2023/01/01 05:23:10;;;;;;;0.00;0.00;;;;;;;5.65;80.73;99194.75;7362280;19;20077;-58
2023/01/01 05:25:36;;;;;;;0.00;0.00;;;;;;;5.67;80.70;99195.53;7357699;19;20697;-59
2023/01/01 05:28:01;;;;;;;0.10;0.10;;;;;;;5.67;80.85;99196.38;7361945;19;20104;-59
2023/01/01 05:30:26;;;;;;;0.00;0.00;;;;;;;5.69;81.10;99194.63;7361689;19;20010;-58
2023/01/01 05:32:52;;;;;;;0.00;0.00;;;;;;;5.71;81.13;99203.19;7360894;19;20006;-59
2023/01/01 05:35:17;;;;;;;0.00;0.00;;;;;;;5.75;81.21;99197.94;7357456;19;20027;-59
2023/01/01 05:37:42;;;;;;;0.00;0.00;;;;;;;5.75;81.13;99193.59;7361475;19;20026;-58
2023/01/01 05:40:09;;;;;;;0.00;0.00;;;;;;;5.79;81.09;99200.41;7361394;19;20006;-58
2023/01/01 05:42:35;;;;;;;0.10;0.10;;;;;;;5.82;81.05;99199.44;7355806;19;20031;-58
2023/01/01 05:45:01;;;;;;;0.00;0.00;;;;;;;5.86;81.32;99195.88;7359827;19;20730;-57
2023/01/01 05:47:27;;;;;;;0.00;0.00;;;;;;;5.91;81.26;99197.50;7361019;19;20719;-58
2023/01/01 05:49:52;;;;;;;0.10;0.10;;;;;;;5.94;81.45;99192.22;7359754;19;20016;-59
2023/01/01 05:52:18;;;;;;;0.05;0.05;;;;;;;5.97;81.32;99191.28;7359171;19;20006;-58
2023/01/01 05:54:43;;;;;;;0.10;0.10;;;;;;;6.00;81.30;99193.81;7360901;19;20082;-59
2023/01/01 05:57:08;;;;;;;0.10;0.10;;;;;;;6.04;81.15;99191.97;7358649;19;20006;-58
2023/01/01 05:59:34;;;;;;;0.08;0.08;;;;;;;6.06;81.18;99188.44;7357139;19;20725;-58
2023/01/01 06:01:59;;;;;;;0.00;0.00;;;;;;;6.09;81.04;99193.53;7359147;19;20011;-58
2023/01/01 06:04:25;;;;;;;0.00;0.00;;;;;;;6.11;80.81;99196.94;7358667;19;20010;-58
2023/01/01 06:06:50;;;;;;;0.10;0.10;;;;;;;6.16;81.13;99194.22;7360095;19;20010;-59
2023/01/01 06:09:15;;;;;;;0.00;0.00;;;;;;;6.18;81.33;99202.78;7359134;19;20018;-58
2023/01/01 06:11:41;;;;;;;0.00;0.00;;;;;;;6.21;81.27;99203.53;7360035;19;20599;-58
2023/01/01 06:14:06;;;;;;;0.10;0.10;;;;;;;6.26;81.11;99210.34;7356383;19;20022;-58
2023/01/01 06:16:33;;;;;;;0.10;0.10;;;;;;;6.23;81.02;99198.31;7360996;19;20009;-58
2023/01/01 06:18:58;;;;;;;0.10;0.10;;;;;;;6.32;80.75;99212.75;7360414;19;20066;-58
2023/01/01 06:21:25;;;;;;;0.10;0.10;;;;;;;6.34;80.97;99209.25;7359713;19;20086;-58
2023/01/01 06:23:51;;;;;;;0.10;0.10;;;;;;;6.37;80.66;99214.31;7357550;19;20097;-58
2023/01/01 06:26:25;;;;;;;0.10;0.10;;;;;;;6.41;81.08;99215.94;7356502;19;20670;-58
2023/01/01 06:28:51;;;;;;;0.00;0.00;;;;;;;6.43;81.02;99219.31;7358166;19;20010;-58
2023/01/01 06:31:20;;;;;;;0.10;0.10;;;;;;;6.45;80.69;99221.88;7358880;19;20030;-58
2023/01/01 06:33:47;;;;;;;0.10;0.10;;;;;;;6.46;80.97;99229.59;7358822;19;20003;-58
2023/01/01 06:36:15;;;;;;;0.10;0.10;;;;;;;6.47;80.99;99236.47;7356825;19;20489;-59
2023/01/01 06:38:42;;;;;;;;;;;;;;;6.52;80.54;99243.28;7360720;19;20031;-58
2023/01/01 06:41:16;;;;;;;0.00;0.00;;;;;;;6.53;80.62;99242.38;7356887;19;19921;-58
2023/01/01 06:43:42;;;;;;;0.05;0.05;;;;;;;6.51;80.63;99245.03;7360671;19;20013;-57
2023/01/01 06:46:23;;;;;;;0.10;0.10;;;;;;;6.52;80.76;99240.69;7357897;19;24842;-58
2023/01/01 06:48:53;;;;;;;0.10;0.10;;;;;;;6.52;80.94;99238.09;7359410;19;20006;-58
2023/01/01 06:51:21;;;;;;;0.10;0.10;;;;;;;6.56;80.47;99234.53;7355309;19;20601;-59
2023/01/01 06:53:47;;;;;;;0.00;0.00;;;;;;;6.52;80.86;99222.53;7359771;19;20010;-59
2023/01/01 06:56:13;;;;;;;0.03;0.03;;;;;;;6.58;80.59;99240.50;7357580;19;20025;-58
2023/01/01 06:58:39;;;;;;;0.10;0.10;;;;;;;6.58;80.98;99240.50;7357066;19;20183;-58
2023/01/01 07:01:09;;;;;;;0.10;0.10;;;;;;;6.60;80.76;99231.81;7350896;19;20005;-58
2023/01/01 07:03:35;;;;;;;0.00;0.00;;;;;;;6.62;80.86;99235.19;7319474;19;20382;-59
2023/01/01 07:06:00;;;;;;;0.00;0.00;;;;;;;6.61;80.82;99241.28;7354861;19;20478;-57
2023/01/01 07:08:26;;;;;;;0.00;0.00;;;;;;;6.64;80.57;99241.19;7354166;19;20077;-58
2023/01/01 07:10:51;;;;;;;0.00;0.00;;;;;;;6.60;80.37;99236.16;7355042;19;20782;-57
2023/01/01 07:13:16;;;;;;;0.00;0.00;;;;;;;6.60;80.29;99237.00;7355518;19;20014;-58
2023/01/01 07:15:43;;;;;;;0.10;0.10;;;;;;;6.66;80.54;99243.72;7355984;19;20056;-58
2023/01/01 07:18:08;;;;;;;0.00;0.00;;;;;;;6.68;80.35;99241.94;7353742;19;20011;-58
2023/01/01 07:20:34;;;;;;;0.00;0.00;;;;;;;6.59;80.49;99224.91;7354519;19;20028;-58
2023/01/01 07:23:01;;;;;;;0.08;0.08;;;;;;;6.70;80.66;99237.56;7356842;19;20010;-58
2023/01/01 07:25:27;;;;;;;0.00;0.00;;;;;;;6.71;80.63;99234.06;7354051;19;20037;-58
2023/01/01 07:27:52;;;;;;;0.00;0.00;;;;;;;6.70;80.65;99232.38;7354595;19;20151;-57
2023/01/01 07:30:18;;;;;;;0.00;0.00;;;;;;;6.66;80.37;99226.41;7350097;19;20006;-58
2023/01/01 07:32:43;;;;;;;0.03;0.03;;;;;;;6.72;80.39;99240.94;7354390;19;20047;-58
2023/01/01 07:35:09;;;;;;;0.00;0.00;;;;;;;6.71;80.30;99249.63;7353014;19;20018;-58
2023/01/01 07:37:35;;;;;;;0.00;0.00;;;;;;;6.73;80.35;99243.47;7352186;19;20469;-58
2023/01/01 07:40:00;;;;;;;0.00;0.00;;;;;;;6.73;80.42;99243.47;7366853;19;20098;-58
2023/01/01 07:42:25;;;;;;;0.08;0.08;;;;;;;6.74;80.27;99250.41;7367219;19;20010;-58
2023/01/01 07:44:51;;;;;;;0.10;0.10;;;;;;;6.74;80.48;99244.34;7366972;19;20034;-58
2023/01/01 07:47:24;;;;;;;0.00;0.00;;;;;;;6.79;80.39;99247.63;7367515;19;20030;-57
2023/01/01 07:49:51;;;;;;;0.10;0.10;;;;;;;6.75;80.16;99251.25;7368402;19;20524;-59
2023/01/01 07:52:16;;;;;;;0.10;0.10;;;;;;;6.77;80.34;99259.81;7367640;19;20470;-59
2023/01/01 07:54:42;;;;;;;0.00;0.00;;;;;;;6.77;80.28;99265.00;7366187;19;20030;-58
2023/01/01 07:57:08;;;;;;;0.08;0.08;;;;;;;6.78;80.46;99266.69;7367542;19;20002;-59
2023/01/01 07:59:33;;;;;;;0.10;0.10;;;;;;;6.78;80.57;99264.09;7365440;19;20118;-58
2023/01/01 08:01:59;;;;;;;0.10;0.10;;;;;;;6.80;80.48;99261.47;7369111;19;20011;-58
2023/01/01 08:04:25;;;;;;;0.10;0.10;;;;;;;6.81;80.33;99266.63;7368336;19;20018;-57
2023/01/01 08:06:51;;;;;;;0.03;0.03;;;;;;;6.81;80.44;99271.81;7365784;19;20038;-58
2023/01/01 08:09:17;;;;;;;0.00;0.00;;;;;;;6.82;80.32;99270.91;7366456;19;20092;-58
2023/01/01 08:11:42;;;;;;;0.00;0.00;;;;;;;6.83;80.12;99276.94;7365544;19;20078;-58
2023/01/01 08:14:12;;;;;;;0.00;0.00;;;;;;;6.85;80.60;99283.78;7365696;19;20025;-58
2023/01/01 08:16:37;;;;;;;0.00;0.00;;;;;;;6.85;80.55;99288.97;7367518;19;21118;-58
2023/01/01 08:19:03;;;;;;;0.10;0.10;;;;;;;6.87;80.13;99282.00;7365055;19;20018;-58
2023/01/01 08:21:28;;;;;;;0.00;0.00;;;;;;;6.89;80.41;99279.34;7370106;19;20018;-58
2023/01/01 08:23:54;;;;;;;0.10;0.10;;;;;;;6.85;80.10;99270.81;7365304;19;20018;-59
2023/01/01 08:26:28;;;;;;;0.05;0.05;;;;;;;6.94;79.94;99273.09;7368244;19;20049;-58
2023/01/01 08:28:54;;;;;;;0.00;0.00;;;;;;;6.92;80.37;99274.91;7363969;19;20779;-57
2023/01/01 08:31:19;;;;;;;0.00;0.00;;;;;;;6.93;79.86;99274.00;7368687;19;20845;-57
2023/01/01 08:33:44;;;;;;;0.00;0.00;;;;;;;6.93;80.44;99276.59;7362834;19;20757;-58
2023/01/01 08:36:12;;;;;;;0.00;0.00;;;;;;;6.96;79.96;99280.88;7365750;19;20027;-59
2023/01/01 08:38:38;;;;;;;0.00;0.00;;;;;;;6.95;80.02;99279.19;7365587;19;20010;-59
2023/01/01 08:41:03;;;;;;;0.00;0.00;;;;;;;6.93;80.07;99278.34;7368249;19;20019;-59
2023/01/01 08:43:29;;;;;;;0.10;0.10;;;;;;;6.91;79.91;99287.94;7364062;19;20027;-58
2023/01/01 08:45:54;;;;;;;0.10;0.10;;;;;;;6.91;80.18;99288.78;7363721;19;20011;-57
2023/01/01 08:48:19;;;;;;;0.00;0.00;;;;;;;6.90;80.08;99289.69;7363682;19;20006;-58
2023/01/01 08:50:52;;;;;;;0.00;0.00;;;;;;;6.93;79.87;99293.94;7359645;19;20019;-57
2023/01/01 08:53:17;;;;;;;0.10;0.10;;;;;;;6.91;80.25;99301.78;7354983;19;20007;-58
2023/01/01 08:55:43;;;;;;;0.10;0.10;;;;;;;6.91;80.07;99299.16;7359139;19;20034;-57
2023/01/01 08:58:08;;;;;;;0.00;0.00;;;;;;;6.88;80.05;99296.66;7356684;19;20029;-59
2023/01/01 09:00:34;;;;;;;0.00;0.00;;;;;;;6.92;80.41;99306.06;7359211;19;20021;-59
2023/01/01 09:02:59;;;;;;;0.00;0.00;;;;;;;6.95;80.30;99308.56;7355975;19;20018;-58
2023/01/01 09:05:25;;;;;;;0.00;0.00;;;;;;;6.95;79.92;99316.34;7357072;19;20010;-58
2023/01/01 09:07:50;;;;;;;0.10;0.10;;;;;;;6.98;80.10;99311.06;7352832;19;20069;-57
2023/01/01 09:10:15;;;;;;;0.00;0.00;;;;;;;7.00;80.16;99308.44;7362102;19;20018;-57
2023/01/01 09:12:41;;;;;;;0.00;0.00;;;;;;;6.92;80.43;99303.47;7357418;19;20014;-58
2023/01/01 09:15:14;;;;;;;0.10;0.10;;;;;;;7.09;80.44;99330.66;7342941;19;20574;-58
2023/01/01 09:17:39;;;;;;;0.10;0.10;;;;;;;7.08;80.28;99327.19;7364990;19;20018;-58
2023/01/01 09:20:05;;;;;;;0.00;0.00;;;;;;;7.13;80.12;99337.44;7365916;19;20006;-58
2023/01/01 09:22:30;;;;;;;0.10;0.10;;;;;;;7.15;80.10;99339.13;7359463;19;20018;-58
2023/01/01 09:24:56;;;;;;;0.10;0.10;;;;;;;7.18;80.24;99343.34;7363215;19;20019;-57
2023/01/01 09:27:21;;;;;;;0.08;0.08;;;;;;;7.22;79.90;99338.00;7363709;19;20017;-59
2023/01/01 09:29:46;;;;;;;0.00;0.00;;;;;;;7.16;79.83;99329.56;7358010;19;20067;-58
2023/01/01 09:32:12;;;;;;;0.00;0.00;;;;;;;7.28;79.97;99344.75;7350992;19;20019;-57
2023/01/01 09:34:37;;;;;;;0.00;0.00;;;;;;;7.31;80.29;99355.06;7356866;19;20763;-57
2023/01/01 09:37:03;;;;;;;0.00;0.00;;;;;;;7.35;80.15;99356.69;7358514;19;20367;-58
2023/01/01 09:39:29;;;;;;;0.00;0.00;;;;;;;7.40;80.06;99359.09;7336808;19;20052;-57
2023/01/01 09:42:17;;;;;;;0.00;0.00;;;;;;;7.47;80.40;99364.06;7357870;19;20039;-55
2023/01/01 09:44:54;;;;;;;0.00;0.00;;;;;;;7.52;80.51;99366.53;7355437;19;20044;-59
2023/01/01 09:47:33;;;;;;;0.00;0.00;;;;;;;7.58;80.70;99362.88;7354777;19;20010;-59
2023/01/01 09:50:11;;;;;;;0.00;0.00;;;;;;;7.58;80.33;99360.28;7356166;19;20010;-58
2023/01/01 09:52:59;;;;;;;0.00;0.00;;;;;;;7.70;80.87;99383.25;7354303;19;20034;-58
2023/01/01 09:55:42;;;;;;;0.10;0.10;;;;;;;7.74;80.95;99388.31;7351650;19;20019;-58
2023/01/01 09:58:10;;;;;;;0.00;0.00;;;;;;;7.75;80.54;99390.00;7347530;19;20708;-58
2023/01/01 10:00:42;;;;;;;0.00;0.00;;;;;;;7.78;80.06;99395.13;7349926;19;20019;-58
2023/01/01 10:03:22;;;;;;;0.05;0.05;;;;;;;7.84;80.58;99407.06;7354305;19;20023;-59
2023/01/01 10:06:08;;;;;;;0.10;0.10;;;;;;;7.88;80.51;99411.28;7358996;19;20021;-58
2023/01/01 10:09:20;;;;;;;0.00;0.00;;;;;;;7.94;80.93;99424.06;7353898;19;20014;-59
2023/01/01 10:12:05;;;;;;;0.00;0.00;;;;;;;7.95;80.86;99428.34;7254081;19;2004599;-59
2023/01/01 10:14:40;;;;;;;0.00;0.00;;;;;;;7.97;80.61;99431.78;7355561;19;20021;-59
2023/01/01 10:17:20;;;;;;;0.00;0.00;;;;;;;7.97;80.96;99431.78;7354628;19;20530;-58
2023/01/01 10:19:52;;;;;;;0.00;0.00;;;;;;;7.95;80.72;99441.34;7354758;19;20021;-58
2023/01/01 10:22:42;;;;;;;0.10;0.10;;;;;;;7.91;80.94;99439.78;7354596;19;20027;-57
2023/01/01 10:25:20;;;;;;;0.00;0.00;;;;;;;7.92;80.32;99441.47;7354575;19;20798;-58
2023/01/01 10:27:59;;;;;;;0.00;0.00;;;;;;;7.91;80.42;99442.38;7355691;19;20017;-59
2023/01/01 10:30:26;;;;;;;0.10;0.10;;;;;;;7.88;80.79;99434.66;7353003;19;20014;-59
2023/01/01 10:32:53;;;;;;;0.00;0.00;;;;;;;7.86;80.56;99431.28;7354249;19;20022;-56
2023/01/01 10:35:29;;;;;;;0.10;0.10;;;;;;;7.86;80.67;99420.03;7352964;19;21120;-59
2023/01/01 10:37:57;;;;;;;0.00;0.00;;;;;;;7.98;80.71;99436.06;7357793;19;20034;-59
2023/01/01 10:40:27;;;;;;;0.00;0.00;;;;;;;8.07;80.89;99425.38;7357078;19;20019;-58
2023/01/01 10:42:55;;;;;;;0.00;0.00;;;;;;;8.16;80.59;99428.56;7357136;19;20022;-58
2023/01/01 10:45:37;;;;;;;0.00;0.00;;;;;;;8.36;80.57;99427.88;7352263;19;20007;-58
2023/01/01 10:48:23;;;;;;;0.08;0.08;;;;;;;8.58;80.85;99460.13;7346790;19;20011;-59
2023/01/01 10:50:59;;;;;;;0.00;0.00;;;;;;;8.65;79.79;99464.19;7355072;19;20351;-59
2023/01/01 10:53:39;;;;;;;0.00;0.00;;;;;;;8.70;79.78;99477.06;7356216;19;20015;-58
2023/01/01 10:56:14;;;;;;;0.10;0.10;;;;;;;8.72;79.78;99472.66;7358341;19;20103;-59
2023/01/01 10:58:43;;;;;;;0.00;0.00;;;;;;;8.71;79.95;99468.34;7354688;19;20073;-58
2023/01/01 11:01:16;;;;;;;0.05;0.05;;;;;;;8.71;79.75;99482.19;7350886;19;20023;-58
2023/01/01 11:04:19;;;;;;;0.00;0.00;;;;;;;8.74;79.87;99491.66;7355744;19;20027;-58
2023/01/01 11:06:46;;;;;;;0.03;0.03;;;;;;;8.68;79.78;99489.28;7251057;19;2004271;-59
2023/01/01 11:09:30;;;;;;;0.00;0.00;;;;;;;8.70;80.17;99495.28;7358578;19;20026;-58
2023/01/01 11:11:59;;;;;;;0.10;0.10;;;;;;;8.66;79.87;99486.72;7356336;19;20035;-58
2023/01/01 11:14:30;;;;;;;0.00;0.00;;;;;;;8.67;79.80;99482.34;7353729;19;20010;-58
2023/01/01 11:16:56;;;;;;;0.05;0.05;;;;;;;8.66;79.84;99480.66;7352366;19;20326;-58
2023/01/01 11:19:31;;;;;;;0.10;0.10;;;;;;;8.69;79.79;99480.56;7357171;19;20010;-58
2023/01/01 11:21:56;;;;;;;0.00;0.00;;;;;;;8.68;79.93;99486.69;7353776;19;20078;-59
2023/01/01 11:24:24;;;;;;;0.00;0.00;;;;;;;8.69;79.79;99488.38;7360372;19;22401;-59
2023/01/01 11:26:50;;;;;;;;;;;;;;;8.77;80.36;99497.63;7359941;19;20033;-59
2023/01/01 11:29:16;;;;;;;0.00;0.00;;;;;;;8.75;80.00;99494.22;7349983;19;20936;-59
2023/01/01 11:31:44;;;;;;;0.00;0.00;;;;;;;8.79;80.20;99497.56;7355356;19;20006;-58
2023/01/01 11:34:27;;;;;;;0.10;0.10;;;;;;;8.83;80.37;99514.78;7357282;19;20017;-58
2023/01/01 11:37:13;;;;;;;0.10;0.10;;;;;;;8.85;79.92;99518.16;7355393;19;20829;-58
2023/01/01 11:39:44;;;;;;;0.08;0.08;;;;;;;8.86;80.19;99514.66;7350047;19;20105;-59
2023/01/01 11:42:25;;;;;;;0.00;0.00;;;;;;;8.89;79.99;99519.78;7357361;19;20013;-58
2023/01/01 11:44:57;;;;;;;0.10;0.10;;;;;;;8.88;80.04;99525.03;7352898;19;20018;-58
2023/01/01 11:47:25;;;;;;;0.10;0.10;;;;;;;8.89;79.73;99531.94;7356851;19;20014;-57
2023/01/01 11:49:56;;;;;;;0.10;0.10;;;;;;;8.90;80.35;99538.84;7356012;19;20130;-59
2023/01/01 11:52:37;;;;;;;0.10;0.10;;;;;;;8.78;79.98;99522.75;7351916;19;20117;-58
2023/01/01 11:55:13;;;;;;;0.00;0.00;;;;;;;8.81;79.79;99534.78;7357306;19;20006;-59
2023/01/01 11:57:44;;;;;;;0.10;0.10;;;;;;;8.82;79.94;99532.16;7354041;19;20044;-59
2023/01/01 12:00:15;;;;;;;0.08;0.08;;;;;;;8.88;80.27;99543.25;7357283;19;20349;-58